Time;durP1;ratioP1;P1;durP2;ratioP2;P2;SDS_P1;SDS_P2;PMS_P1;PMS_P2;Temp;Humidity;BMP_temperature;BMP_pressure;BME280_temperature;BME280_humidity;BME280_pressure;Samples;Min_cycle;Max_cycle;Signal;HPM_P1;HPM_P2
2021/11/01 00:01:53;;;;;;;;;100.50;97.75;;;;;7.69;72.38;102013.94;4923998;29;8847;-72
2021/11/01 00:04:48;;;;;;;;;152.00;139.25;;;;;7.63;72.94;102012.31;4936493;29;9650;-72
2021/11/01 00:07:44;;;;;;;;;141.50;116.00;;;;;7.50;73.79;102009.00;4936506;29;8974;-71
2021/11/01 00:10:40;;;;;;;;;144.75;130.50;;;;;7.66;73.58;102008.97;4923936;29;8847;-72
2021/11/01 00:13:35;;;;;;;;;128.50;116.75;;;;;7.66;73.11;102008.97;4936425;29;8973;-72
2021/11/01 00:16:31;;;;;;;;;129.50;116.75;;;;;7.56;73.44;102003.50;4923711;29;8863;-72
2021/11/01 00:19:27;;;;;;;;;130.25;110.50;;;;;7.62;72.93;101999.66;4935638;29;8856;-72
2021/11/01 00:22:23;;;;;;;;;147.50;119.75;;;;;7.48;74.03;102004.91;4923401;29;8861;-72
2021/11/01 00:25:20;;;;;;;;;137.25;128.00;;;;;7.59;73.34;101997.44;4935563;29;8859;-72
2021/11/01 00:28:16;;;;;;;;;132.75;122.00;;;;;7.48;74.19;101986.44;4935917;29;8843;-72
2021/11/01 00:31:12;;;;;;;;;125.25;112.50;;;;;7.47;74.19;101995.00;4936155;29;8953;-73
2021/11/01 00:34:08;;;;;;;;;110.00;98.00;;;;;7.47;73.92;101989.50;4936061;29;8835;-72
2021/11/01 00:37:03;;;;;;;;;112.67;97.00;;;;;7.48;74.35;101985.63;4935858;29;8925;-72
2021/11/01 00:40:00;;;;;;;;;115.67;105.33;;;;;7.43;74.31;101988.38;4935948;29;9593;-72
2021/11/01 00:42:56;;;;;;;;;121.75;110.75;;;;;7.52;74.65;101983.97;4923084;29;8855;-72
2021/11/01 00:45:52;;;;;;;;;133.00;118.50;;;;;7.39;74.38;101977.13;4935710;29;8854;-72
2021/11/01 00:48:48;;;;;;;;;123.25;113.25;;;;;7.48;74.14;101975.44;4935052;29;8834;-72
2021/11/01 00:51:44;;;;;;;;;120.00;105.00;;;;;7.36;75.02;101969.44;4935621;29;8901;-73
2021/11/01 00:54:43;;;;;;;;;0.00;0.00;;;;;7.34;75.35;101968.84;4935843;29;8905;-73
2021/11/01 00:57:38;;;;;;;;;100.33;89.33;;;;;7.36;75.33;101965.81;4935564;29;8823;-72
2021/11/01 01:00:34;;;;;;;;;119.33;99.33;;;;;7.33;75.43;101964.47;4935422;29;8842;-72
2021/11/01 01:03:31;;;;;;;;;113.67;100.00;;;;;7.33;75.76;101964.47;4935591;29;8925;-72
2021/11/01 01:06:27;;;;;;;;;126.00;111.00;;;;;7.27;75.73;101960.06;4936190;29;8925;-72
2021/11/01 01:09:23;;;;;;;;;132.50;120.25;;;;;7.23;75.83;101953.47;4934614;29;8835;-72
2021/11/01 01:12:20;;;;;;;;;153.75;138.50;;;;;7.32;75.48;101954.56;4934411;29;8858;-73
2021/11/01 01:15:23;;;;;;;;;117.00;100.33;;;;;7.21;76.67;101941.94;4935453;29;8826;-72
2021/11/01 01:18:22;;;;;;;;;118.67;97.33;;;;;7.13;76.82;101934.22;4935328;29;8869;-72
2021/11/01 01:24:33;;;;;;;;;125.00;102.25;;;;;7.14;77.35;101942.22;4934791;29;8838;-73
2021/11/01 01:27:30;;;;;;;;;110.67;97.00;;;;;7.05;77.74;101932.03;4934986;29;8839;-72
2021/11/01 01:30:14;;;;;;;;;109.67;101.33;;;;;7.03;78.26;101942.50;4928813;29;8889;-72
2021/11/01 01:33:10;;;;;;;;;107.33;96.00;;;;;6.96;77.96;101940.84;4928988;29;8876;-72
2021/11/01 01:36:06;;;;;;;;;103.33;94.67;;;;;6.98;78.47;101932.34;4934985;29;8857;-72
2021/11/01 01:39:03;;;;;;;;;104.00;93.67;;;;;7.03;77.78;101937.00;4921519;29;8965;-72
2021/11/01 01:41:58;;;;;;;;;130.75;125.50;;;;;7.03;77.35;101939.75;4922111;29;8842;-72
2021/11/01 01:44:55;;;;;;;;;140.25;127.50;;;;;6.93;77.88;101938.66;4922185;29;8867;-72
2021/11/01 01:47:50;;;;;;;;;130.25;127.50;;;;;6.87;77.97;101947.19;4922325;29;8845;-72
2021/11/01 01:50:46;;;;;;;;;160.75;150.25;;;;;6.82;78.28;101937.00;4934098;29;8847;-72
2021/11/01 01:53:43;;;;;;;;;168.25;154.25;;;;;6.77;78.36;101937.00;4922248;29;8838;-72
2021/11/01 01:56:38;;;;;;;;;180.75;169.00;;;;;6.73;78.72;101943.31;4934975;29;8850;-72
2021/11/01 01:59:34;;;;;;;;;157.50;146.75;;;;;6.75;78.52;101941.13;4922079;29;8839;-72
2021/11/01 02:02:30;;;;;;;;;164.25;150.25;;;;;6.82;78.55;101947.16;4921872;29;8850;-72
2021/11/01 02:05:35;;;;;;;;;152.50;133.75;;;;;6.74;78.74;101940.28;4934713;29;8876;-72
2021/11/01 02:08:38;;;;;;;;;132.25;120.00;;;;;6.66;79.32;101936.16;4934963;29;8874;-72
2021/11/01 02:11:38;;;;;;;;;143.00;130.75;;;;;6.78;79.26;101946.91;4934606;29;8874;-72
2021/11/01 02:14:43;;;;;;;;;130.25;119.00;;;;;6.76;79.00;101938.13;4934791;29;8973;-72
2021/11/01 02:17:40;;;;;;;;;118.75;114.25;;;;;6.67;79.51;101937.00;4934604;29;8830;-72
2021/11/01 02:20:36;;;;;;;;;125.25;111.75;;;;;6.71;79.35;101938.09;4934644;29;8839;-72
2021/11/01 02:24:15;;;;;;;;;118.00;105.75;;;;;6.70;79.49;101930.97;4921755;29;8881;-73
2021/11/01 02:27:12;;;;;;;;;124.50;113.50;;;;;6.71;79.70;101932.59;4934739;29;9630;-71
2021/11/01 02:29:43;;;;;;;;;129.25;122.75;;;;;6.64;79.83;101935.63;4915020;29;8861;-71
2021/11/01 02:32:44;;;;;;;;;142.75;132.25;;;;;6.70;79.90;101930.97;4913536;29;8846;-71
2021/11/01 02:35:42;;;;;;;;;132.50;117.00;;;;;6.66;79.72;101933.41;4913165;29;8856;-72
2021/11/01 02:38:38;;;;;;;;;128.50;119.75;;;;;6.71;79.95;101931.78;4913982;29;8858;-73
2021/11/01 02:41:34;;;;;;;;;79.25;62.75;;;;;6.68;79.63;101942.25;4915543;29;8837;-72
2021/11/01 02:44:30;;;;;;;;;114.75;108.75;;;;;6.70;79.49;101939.22;4914250;29;8843;-71
2021/11/01 02:47:27;;;;;;;;;130.25;118.50;;;;;6.63;80.29;101935.91;4913614;29;8993;-71
2021/11/01 02:50:22;;;;;;;;;130.25;112.75;;;;;6.68;79.67;101930.41;4915841;29;8837;-71
2021/11/01 02:53:19;;;;;;;;;131.00;117.75;;;;;6.71;79.82;101932.59;4911994;29;8964;-71
2021/11/01 02:56:15;;;;;;;;;136.50;126.00;;;;;6.73;79.69;101927.66;4917464;29;8848;-72
2021/11/01 02:59:11;;;;;;;;;136.75;120.00;;;;;6.76;79.02;101927.13;4928938;29;8865;-71
2021/11/01 03:02:08;;;;;;;;;143.50;130.75;;;;;6.73;79.25;101933.16;4914101;29;8847;-72
2021/11/01 03:05:11;;;;;;;;;145.75;121.50;;;;;6.73;79.67;101927.66;4912295;29;8859;-71
2021/11/01 03:08:06;;;;;;;;;134.00;120.75;;;;;6.69;79.90;101930.13;4919099;29;8862;-71
2021/11/01 03:11:03;;;;;;;;;81.25;63.00;;;;;6.78;79.79;101913.09;4928859;29;8996;-72
2021/11/01 03:13:59;;;;;;;;;118.25;107.75;;;;;6.85;79.76;101914.47;4916038;29;9578;-72
2021/11/01 03:16:58;;;;;;;;;106.50;94.50;;;;;6.79;80.27;101906.47;4916545;29;8857;-73
2021/11/01 03:20:01;;;;;;;;;105.00;95.00;;;;;6.89;79.93;101912.78;4918762;29;8874;-72
2021/11/01 03:23:17;;;;;;;;;100.33;83.33;;;;;6.83;79.77;101902.91;4918512;29;8868;-72
2021/11/01 03:26:18;;;;;;;;;107.33;96.67;;;;;6.98;79.28;101910.34;4918441;29;8863;-73
2021/11/01 03:29:18;;;;;;;;;103.67;95.67;;;;;7.04;78.88;101903.69;4933118;29;8924;-72
2021/11/01 03:32:14;;;;;;;;;135.25;116.75;;;;;7.03;78.58;101904.81;4935792;29;8847;-73
2021/11/01 03:35:11;;;;;;;;;104.67;102.33;;;;;7.03;78.55;101910.31;4935531;29;8815;-73
2021/11/01 03:38:06;;;;;;;;;94.00;80.00;;;;;7.04;78.72;101909.19;4934774;29;8839;-73
2021/11/01 03:41:08;;;;;;;;;75.00;61.00;;;;;6.93;79.42;101902.91;4934993;29;8963;-72
2021/11/01 03:44:12;;;;;;;;;96.33;83.33;;;;;7.00;77.89;101893.53;4936067;29;8858;-72
2021/11/01 03:47:08;;;;;;;;;100.67;91.67;;;;;7.13;76.89;101891.06;4923768;29;8839;-72
2021/11/01 03:50:15;;;;;;;;;93.67;80.33;;;;;6.88;77.35;101899.31;4921288;29;8842;-72
2021/11/01 03:53:11;;;;;;;;;90.00;73.00;;;;;6.84;77.05;101899.06;4934012;29;8851;-71
2021/11/01 03:56:08;;;;;;;;;100.67;90.33;;;;;6.71;76.89;101894.13;4934731;29;8871;-71
2021/11/01 03:59:04;;;;;;;;;100.00;90.67;;;;;6.74;77.70;101899.06;4923928;29;8846;-72
2021/11/01 04:01:37;;;;;;;;;98.33;90.67;;;;;6.77;77.54;101892.19;4920062;29;8872;-72
2021/11/01 04:04:33;;;;;;;;;95.67;87.00;;;;;6.73;77.50;101891.91;4922665;29;8875;-71
2021/11/01 04:07:15;;;;;;;;;84.67;66.33;;;;;6.71;77.55;101891.38;4937817;29;8905;-72
2021/11/01 04:10:11;;;;;;;;;94.67;80.67;;;;;6.71;77.21;101885.88;4924130;29;8858;-72
2021/11/01 04:12:41;;;;;;;;;95.67;81.33;;;;;6.74;77.26;101895.47;4937401;29;8857;-71
2021/11/01 04:15:26;;;;;;;;;91.67;71.33;;;;;6.57;77.61;101902.09;4935049;29;8873;-72
2021/11/01 04:18:30;;;;;;;;;86.00;69.33;;;;;6.63;77.47;101883.66;4934946;29;8866;-73
2021/11/01 04:21:26;;;;;;;;;120.50;108.50;;;;;6.45;79.80;101884.22;4934724;29;8908;-73
2021/11/01 04:24:23;;;;;;;;;128.25;120.25;;;;;6.52;80.72;101884.78;4922246;29;9038;-72
2021/11/01 04:27:19;;;;;;;;;121.00;107.25;;;;;6.67;80.42;101891.09;4934046;29;8858;-72
2021/11/01 04:30:15;;;;;;;;;142.25;129.50;;;;;6.56;80.83;101891.38;4934822;29;8858;-73
2021/11/01 04:33:14;;;;;;;;;146.50;124.25;;;;;6.83;79.91;101891.09;4933717;29;8826;-71
2021/11/01 04:35:43;;;;;;;;;134.00;124.75;;;;;6.80;79.74;101891.63;4918991;29;8965;-70
2021/11/01 04:41:53;;;;;;;;;136.00;119.50;;;;;6.79;79.79;101890.81;4935900;29;8855;-71
2021/11/01 04:54:32;;;;;;;;;125.75;117.00;;;;;6.81;80.06;101882.28;4935663;29;8862;-72
2021/11/01 04:57:27;;;;;;;;;133.25;121.50;;;;;6.67;80.72;101888.34;4935676;29;8868;-72
2021/11/01 05:00:24;;;;;;;;;153.75;136.50;;;;;6.78;80.50;101889.16;4934740;29;8842;-73
2021/11/01 05:05:42;;;;;;;;;110.75;101.00;;;;;6.80;80.35;101889.69;4936574;29;8989;-71
2021/11/01 05:08:09;;;;;;;;;121.25;115.50;;;;;6.82;80.05;101889.41;4936577;29;8866;-72
2021/11/01 05:10:40;;;;;;;;;137.25;126.00;;;;;6.87;80.17;101887.50;4935654;29;8913;-72
2021/11/01 05:13:16;;;;;;;;;120.25;115.00;;;;;6.83;80.19;101886.41;4936253;29;8953;-72
2021/11/01 05:16:17;;;;;;;;;144.00;129.00;;;;;6.91;80.19;101883.09;4922614;29;8866;-70
2021/11/01 05:18:59;;;;;;;;;149.25;134.25;;;;;6.87;80.27;101881.19;4936254;29;8885;-73
2021/11/01 05:21:53;;;;;;;;;138.25;118.75;;;;;6.93;79.77;101880.91;4936519;29;8892;-73
2021/11/01 05:24:58;;;;;;;;;122.25;112.50;;;;;6.97;79.81;101881.16;4934953;29;8847;-72
2021/11/01 05:28:41;;;;;;;;;138.25;123.00;;;;;7.08;78.95;101893.81;4919580;29;8870;-72
2021/11/01 05:30:36;;;;;;;;;126.75;112.75;;;;;7.03;79.68;101885.53;4925434;29;8961;-73
2021/11/01 05:36:30;;;;;;;;;132.00;109.25;;;;;6.93;80.45;101888.31;4934181;29;8834;-72
2021/11/01 05:39:26;;;;;;;;;140.25;125.00;;;;;6.95;80.66;101880.63;4922205;29;8925;-71
2021/11/01 05:41:57;;;;;;;;;128.75;113.25;;;;;6.93;80.89;101878.16;4936056;29;8855;-73
2021/11/01 05:44:53;;;;;;;;;135.00;125.00;;;;;6.92;81.20;101895.75;4934739;29;8862;-73
2021/11/01 05:47:35;;;;;;;;;133.75;118.25;;;;;7.05;80.98;101885.25;4920186;29;8869;-72
2021/11/01 05:50:17;;;;;;;;;122.00;105.00;;;;;6.98;82.37;101893.81;4934834;29;8869;-73
2021/11/01 05:53:14;;;;;;;;;112.33;100.67;;;;;7.11;81.91;101876.72;4922034;29;8831;-72
2021/11/01 05:59:37;;;;;;;;;116.00;99.00;;;;;7.09;83.23;101887.19;4919555;29;8850;-72
2021/11/01 06:02:42;;;;;;;;;99.00;87.33;;;;;7.12;83.91;101888.56;4934659;29;8854;-72
2021/11/01 06:14:48;;;;;;;;;90.33;70.67;;;;;7.47;84.09;101888.47;4934730;29;8842;-72
2021/11/01 06:17:31;;;;;;;;;93.67;81.33;;;;;7.53;83.87;101886.53;4935413;29;8866;-73
2021/11/01 06:20:27;;;;;;;;;93.33;81.00;;;;;7.75;83.09;101883.41;4929598;29;8873;-72
2021/11/01 06:23:23;;;;;;;;;103.00;91.33;;;;;7.86;82.85;101887.75;4902863;29;8857;-69
2021/11/01 06:25:56;;;;;;;;;98.00;78.00;;;;;8.02;82.65;101893.97;4919941;29;8845;-69
2021/11/01 06:28:57;;;;;;;;;86.67;67.67;;;;;8.05;82.10;101888.75;4919134;29;8849;-69
2021/11/01 06:32:13;;;;;;;;;91.00;74.00;;;;;8.16;82.12;101888.66;4906332;29;8869;-70
2021/11/01 06:51:42;;;;;;;;;81.67;64.33;;;;;8.59;81.24;101870.47;4918480;29;12332;-70
2021/11/01 07:16:05;;;;;;;;;69.75;56.50;;;;;9.34;79.87;101848.72;4922727;29;11582;-72
2021/11/01 08:21:16;;;;;;;;;32.25;30.75;;;;;11.31;76.66;101837.56;4936759;29;12386;-70
2021/11/01 08:24:50;;;;;;;;;33.00;33.00;;;;;11.36;76.47;101845.78;4925902;29;11506;-70
2021/11/01 08:28:04;;;;;;;;;38.00;37.00;;;;;11.54;75.81;101840.41;4916523;29;11295;-70
2021/11/01 08:39:15;;;;;;;;;33.50;30.50;;;;;11.58;75.03;101824.84;4917610;29;11233;-71
2021/11/01 08:52:09;;;;;;;;;28.00;27.75;;;;;12.32;72.18;101811.47;4936620;29;11557;-70
2021/11/01 09:22:03;;;;;;;;;25.00;25.00;;;;;14.74;64.04;101761.94;4931856;29;10218;-71
2021/11/01 09:25:12;;;;;;;;;27.75;26.75;;;;;14.64;63.54;101767.84;4931349;29;11156;-72
2021/11/01 09:27:53;;;;;;;;;29.75;29.75;;;;;15.10;62.70;101763.41;4916063;29;10895;-70
2021/11/01 09:30:37;;;;;;;;;28.25;24.50;;;;;15.27;62.34;101751.38;4930093;29;10204;-71
2021/11/01 09:36:16;;;;;;;;;39.50;34.25;;;;;15.33;61.52;101732.47;4914729;29;10088;-70
2021/11/01 09:41:28;;;;;;;;;53.50;43.50;;;;;15.79;60.65;101735.09;4912256;29;11163;-71
2021/11/01 09:44:08;;;;;;;;;41.75;34.25;;;;;16.23;59.11;101732.72;4914025;29;10905;-70
2021/11/01 09:46:37;;;;;;;;;59.25;49.00;;;;;16.14;59.01;101726.41;4913716;29;10455;-70
2021/11/01 09:51:38;;;;;;;;;50.25;40.50;;;;;16.15;59.03;101708.50;4910825;29;10741;-71
2021/11/01 09:54:24;;;;;;;;;50.50;42.00;;;;;16.26;58.83;101704.13;4912400;29;10402;-70
2021/11/01 09:57:04;;;;;;;;;34.75;34.00;;;;;16.37;58.46;101708.09;4911754;29;10426;-70
2021/11/01 09:59:37;;;;;;;;;56.25;44.50;;;;;16.72;57.50;101704.94;4910638;29;9816;-69
2021/11/01 10:02:11;;;;;;;;;51.50;43.50;;;;;16.97;57.42;101694.59;4911240;29;10340;-69
2021/11/01 10:04:45;;;;;;;;;39.50;35.75;;;;;16.69;56.98;101677.69;4914509;29;10226;-70
2021/11/01 10:10:04;;;;;;;;;48.75;41.50;;;;;17.26;55.59;101662.75;4912564;29;9758;-72
2021/11/01 10:12:39;;;;;;;;;36.25;33.75;;;;;17.66;54.46;101664.72;4912403;29;10949;-71
2021/11/01 10:18:01;;;;;;;;;21.67;21.67;;;;;17.37;55.36;101668.66;4916518;29;9591;-71
2021/11/01 10:20:31;;;;;;;;;26.67;26.00;;;;;17.94;54.23;101662.78;4916538;29;9178;-71
2021/11/01 10:22:59;;;;;;;;;32.33;31.00;;;;;18.20;53.79;101651.06;4916025;29;9337;-69
2021/11/01 10:25:27;;;;;;;;;26.67;26.33;;;;;18.45;53.30;101648.09;4916249;29;9045;-70
2021/11/01 10:27:57;;;;;;;;;26.50;25.00;;;;;18.58;51.84;101641.22;4916319;29;9190;-71
2021/11/01 10:31:07;;;;;;;;;14.50;14.50;;;;;18.45;51.91;101634.91;4933749;29;8890;-71
2021/11/01 10:33:46;;;;;;;;;22.50;21.50;;;;;19.02;50.68;101635.50;4935145;29;8851;-72
2021/11/01 10:36:46;;;;;;;;;24.50;24.00;;;;;18.96;50.54;101628.56;4914572;29;8831;-71
2021/11/01 10:39:42;;;;;;;;;22.00;22.00;;;;;19.31;49.97;101629.31;4934080;29;8839;-72
2021/11/01 10:42:46;;;;;;;;;18.50;18.50;;;;;19.38;49.95;101623.88;4920278;29;8858;-71
2021/11/01 11:14:53;;;;;;;;;11.75;10.75;;;;;20.41;45.30;101601.78;4937747;29;8851;-71
2021/11/01 11:18:05;;;;;;;;;16.25;16.25;;;;;20.59;45.49;101605.72;4924074;29;8864;-72
2021/11/01 11:21:18;;;;;;;;;15.75;15.25;;;;;20.52;44.77;101599.97;4936545;29;8835;-70
2021/11/01 11:30:45;;;;;;;;;8.75;8.75;;;;;19.90;46.22;101596.47;4936224;29;8842;-72
2021/11/01 11:37:12;;;;;;;;;14.00;14.00;;;;;20.40;45.55;101586.13;4937075;29;9727;-72
2021/11/01 11:49:28;;;;;;;;;27.75;27.75;;;;;20.23;45.48;101579.81;4930751;29;8854;-71
2021/11/01 11:52:03;;;;;;;;;36.50;33.50;;;;;20.42;44.63;101584.53;4936956;29;8871;-72
2021/11/01 11:55:05;;;;;;;;;23.75;23.75;;;;;20.17;45.36;101567.28;4935432;29;8870;-71
2021/11/01 11:58:04;;;;;;;;;24.00;24.00;;;;;20.26;45.17;101565.03;4928101;29;8869;-71
2021/11/01 12:00:45;;;;;;;;;21.50;21.50;;;;;20.01;45.82;101552.53;4935306;29;8870;-71
2021/11/01 12:03:22;;;;;;;;;26.75;26.75;;;;;19.89;46.11;101549.94;4935094;29;8928;-72
2021/11/01 12:06:43;;;;;;;;;24.00;24.00;;;;;19.90;46.19;101548.75;4922320;29;8862;-71
2021/11/01 12:09:17;;;;;;;;;19.75;19.75;;;;;20.04;45.73;101556.59;4937148;29;9704;-71
2021/11/01 12:18:30;;;;;;;;;29.50;29.50;;;;;20.15;45.29;101547.16;4935103;29;8953;-72
2021/11/01 12:20:59;;;;;;;;;35.75;32.75;;;;;20.43;45.24;101544.00;4936577;29;8945;-71
2021/11/01 12:23:42;;;;;;;;;27.50;27.50;;;;;20.52;44.77;101546.59;4931019;29;8823;-72
2021/11/01 12:26:43;;;;;;;;;27.75;27.25;;;;;19.90;45.66;101541.13;4920493;29;8961;-72
2021/11/01 12:29:39;;;;;;;;;29.25;29.25;;;;;19.80;46.50;101538.94;4934626;29;8862;-71
2021/11/01 12:32:13;;;;;;;;;27.75;27.75;;;;;19.69;46.50;101537.94;4928957;29;8860;-72
2021/11/01 12:38:00;;;;;;;;;33.50;32.50;;;;;19.36;47.19;101535.66;4931731;29;8933;-72
2021/11/01 12:40:54;;;;;;;;;38.33;35.33;;;;;19.16;47.94;101535.66;4933457;29;8866;-72
2021/11/01 12:58:59;;;;;;;;;48.75;41.00;;;;;18.33;50.17;101511.78;4921814;29;9419;-71
2021/11/01 13:01:55;;;;;;;;;42.00;37.67;;;;;17.97;50.89;101518.50;4921024;29;9717;-71
2021/11/01 13:05:00;;;;;;;;;45.25;40.00;;;;;18.15;50.63;101513.34;4933042;29;9310;-71
2021/11/01 13:08:03;;;;;;;;;38.50;35.75;;;;;18.11;50.53;101504.06;4927579;29;9568;-71
2021/11/01 13:11:03;;;;;;;;;46.75;39.00;;;;;18.08;50.94;101502.78;4934313;29;9674;-71
2021/11/01 13:20:17;;;;;;;;;41.75;37.75;;;;;17.84;51.42;101517.75;4913413;29;9749;-70
2021/11/01 13:23:14;;;;;;;;;46.50;40.25;;;;;17.81;52.06;101509.28;4934123;29;9582;-71
2021/11/01 13:26:17;;;;;;;;;53.00;45.50;;;;;17.90;51.93;101518.31;4934104;29;9912;-71
2021/11/01 13:35:41;;;;;;;;;48.25;41.25;;;;;17.77;52.04;101510.00;4915570;29;10707;-71
2021/11/01 13:38:38;;;;;;;;;49.00;40.25;;;;;17.59;52.59;101497.50;4915725;29;9923;-72
2021/11/01 13:41:34;;;;;;;;;49.25;40.75;;;;;17.39;53.02;101496.56;4920392;29;9973;-72
2021/11/01 13:44:19;;;;;;;;;49.00;41.75;;;;;17.30;53.52;101495.09;4933899;29;9854;-71
2021/11/01 13:46:57;;;;;;;;;45.00;39.25;;;;;17.09;54.08;101484.94;4923574;29;10144;-71
2021/11/01 13:49:30;;;;;;;;;50.00;43.00;;;;;17.16;53.91;101484.34;4927630;29;10070;-71
2021/11/01 13:52:45;;;;;;;;;53.00;43.50;;;;;17.02;54.42;101479.16;4930694;29;10318;-71
2021/11/01 13:55:51;;;;;;;;;54.25;44.50;;;;;16.99;58.14;101477.06;4934530;29;10459;-71
2021/11/01 13:58:58;;;;;;;;;64.75;52.00;;;;;17.05;59.19;101483.22;4931591;29;10589;-71
2021/11/01 14:20:36;;;;;;;;;69.50;55.25;;;;;16.48;58.09;101493.47;4934004;29;11161;-71
2021/11/01 15:09:16;;;;;;;;;75.50;59.50;;;;;15.16;61.44;101463.13;4938239;29;10702;-71
2021/11/01 15:15:30;;;;;;;;;67.25;52.25;;;;;15.08;61.53;101475.16;4935952;29;11582;-70
2021/11/01 16:19:13;;;;;;;;;87.75;72.50;;;;;14.04;64.41;101446.13;4936077;29;11672;-70
2021/11/01 16:22:11;;;;;;;;;85.75;72.50;;;;;14.02;64.37;101439.25;4934913;29;11633;-69
2021/11/01 16:25:07;;;;;;;;;85.75;75.75;;;;;14.07;64.42;101441.84;4921229;29;11598;-71
2021/11/01 16:28:03;;;;;;;;;85.75;78.75;;;;;14.01;64.25;101438.44;4934818;29;12398;-69
2021/11/01 16:30:32;;;;;;;;;88.25;74.75;;;;;13.95;64.48;101444.53;4915527;29;11610;-70
2021/11/01 16:33:14;;;;;;;;;83.25;71.00;;;;;14.11;64.36;101446.44;4935758;29;11618;-70
2021/11/01 16:35:49;;;;;;;;;88.25;77.50;;;;;14.23;63.90;101451.25;4936513;29;11703;-70
2021/11/01 16:38:23;;;;;;;;;86.50;77.25;;;;;14.27;63.55;101455.00;4936277;29;11694;-70
2021/11/01 16:40:53;;;;;;;;;72.75;55.75;;;;;14.37;63.22;101459.34;4936698;29;11722;-69
2021/11/01 16:43:49;;;;;;;;;65.50;54.00;;;;;14.26;63.30;101460.88;4935748;29;11646;-70
2021/11/01 16:46:18;;;;;;;;;70.00;54.75;;;;;14.11;64.00;101457.56;4936547;29;11610;-70
2021/11/01 16:48:46;;;;;;;;;71.75;57.00;;;;;13.88;65.46;101445.09;4936258;29;11658;-69
2021/11/01 16:51:43;;;;;;;;;70.25;56.00;;;;;13.76;66.76;101437.44;4922401;29;11582;-69
2021/11/01 16:54:41;;;;;;;;;61.25;50.00;;;;;13.61;67.35;101436.03;4935574;29;11548;-69
2021/11/01 16:57:43;;;;;;;;;64.25;52.25;;;;;13.55;67.89;101426.25;4923159;29;11672;-69
2021/11/01 17:00:53;;;;;;;;;62.50;51.50;;;;;13.44;67.88;101429.72;4922579;29;11529;-69
2021/11/01 17:03:56;;;;;;;;;74.00;59.25;;;;;13.37;68.04;101424.69;4935870;29;11589;-68
2021/11/01 17:07:01;;;;;;;;;85.75;73.25;;;;;13.53;67.77;101438.84;4934806;29;11595;-69
2021/11/01 17:25:00;;;;;;;;;80.50;65.25;;;;;13.32;67.63;101397.88;4934739;29;11634;-70
2021/11/01 17:31:11;;;;;;;;;84.00;71.75;;;;;13.23;67.76;101399.88;4935197;29;11562;-70
2021/11/01 18:46:01;;;;;;;;;56.25;47.75;;;;;12.88;71.18;101357.50;4824575;29;11630;-69
2021/11/01 18:52:09;;;;;;;;;55.50;46.75;;;;;12.85;72.28;101349.81;4936856;29;11472;-68
2021/11/01 18:54:42;;;;;;;;;54.75;46.25;;;;;12.74;72.76;101346.56;4930961;29;11585;-70
2021/11/01 18:57:13;;;;;;;;;55.50;47.00;;;;;12.80;73.01;101355.53;4938070;29;11595;-68
2021/11/01 18:59:44;;;;;;;;;53.50;45.50;;;;;12.79;72.76;101354.72;4932630;29;11498;-70
2021/11/01 19:02:50;;;;;;;;;53.75;45.75;;;;;12.67;73.19;101349.03;4937178;29;11636;-70
2021/11/01 19:05:54;;;;;;;;;52.75;43.00;;;;;12.67;73.25;101351.81;4937491;29;11603;-68
2021/11/01 20:08:10;;;;;;;;;44.75;40.00;;;;;12.47;76.76;101322.78;4935485;29;11227;-69
2021/11/01 21:26:23;;;;;;;;;87.00;70.50;;;;;12.33;77.94;101244.47;4928212;29;11582;-68
2021/11/01 21:29:18;;;;;;;;;85.50;73.75;;;;;12.29;78.23;101246.28;4935689;29;11555;-68
2021/11/01 21:32:14;;;;;;;;;80.00;63.00;;;;;12.44;77.58;101231.91;4935038;29;11615;-68
2021/11/01 21:35:19;;;;;;;;;78.75;62.75;;;;;12.40;77.89;101232.88;4916093;29;11552;-68
2021/11/01 21:38:15;;;;;;;;;74.75;58.00;;;;;12.50;77.33;101235.31;4904093;29;11710;-68
2021/11/01 21:41:10;;;;;;;;;82.75;66.25;;;;;12.15;78.43;101223.47;4915948;29;11555;-68
2021/11/01 21:44:06;;;;;;;;;86.00;74.25;;;;;12.15;78.55;101220.69;4916012;29;11651;-68
2021/11/01 21:47:02;;;;;;;;;89.25;77.50;;;;;12.15;78.86;101229.00;4920171;29;11802;-68
2021/11/01 21:49:58;;;;;;;;;89.75;79.25;;;;;12.18;78.77;101218.06;4934676;29;11743;-68
2021/11/01 21:52:56;;;;;;;;;85.00;67.25;;;;;12.14;78.80;101216.31;4934588;29;11584;-68
2021/11/01 21:55:52;;;;;;;;;85.00;71.50;;;;;12.17;78.84;101215.63;4934732;29;11615;-68
2021/11/01 21:59:13;;;;;;;;;84.00;67.25;;;;;12.09;79.08;101208.94;4916358;29;11743;-68
2021/11/01 22:21:14;;;;;;;;;96.33;91.00;;;;;11.66;81.42;101150.78;4934331;29;9564;-68
2021/11/01 22:39:48;;;;;;;;;105.33;93.33;;;;;11.51;83.21;101120.81;4934611;29;8835;-69
2021/11/01 22:46:21;;;;;;;;;101.67;96.67;;;;;11.49;83.33;101114.75;4934540;29;8843;-69
2021/11/01 22:55:53;;;;;;;;;77.50;64.00;;;;;11.53;84.09;101118.53;4934420;29;8936;-69
2021/11/01 22:58:50;;;;;;;;;76.75;61.25;;;;;11.51;84.42;101106.97;4921492;29;11586;-69
2021/11/01 23:01:47;;;;;;;;;80.00;64.25;;;;;11.46;85.38;101096.84;4934190;29;11552;-69
2021/11/01 23:33:35;;;;;;;;;65.50;54.75;;;;;11.62;86.30;101084.13;4937299;29;11661;-69
2021/11/01 23:36:31;;;;;;;;;64.00;51.75;;;;;11.70;86.89;101088.00;4936938;29;11567;-69
2021/11/01 23:39:27;;;;;;;;;61.00;51.50;;;;;11.73;86.68;101084.59;4936776;29;11536;-69
2021/11/01 23:42:22;;;;;;;;;56.25;48.50;;;;;11.68;86.89;101076.47;4936852;29;11563;-69
2021/11/01 23:45:18;;;;;;;;;57.00;47.50;;;;;11.69;86.83;101067.00;4937054;29;11510;-69
2021/11/01 23:48:17;;;;;;;;;52.50;43.25;;;;;11.75;86.67;101070.41;4936838;29;11537;-69
2021/11/01 23:51:16;;;;;;;;;52.50;45.00;;;;;11.78;86.70;101065.00;4936620;29;12340;-69
2021/11/01 23:57:20;;;;;;;;;67.25;54.00;;;;;11.79;86.98;101052.78;4937016;29;11508;-69
